Time;durP1;ratioP1;P1;durP2;ratioP2;P2;SDS_P1;SDS_P2;PMS_P1;PMS_P2;Temp;Humidity;BMP_temperature;BMP_pressure;BME280_temperature;BME280_humidity;BME280_pressure;Samples;Min_cycle;Max_cycle;Signal;HPM_P1;HPM_P2
2022/12/22 03:25:53;;;;;;;35.78;14.93;;;4.00;99.90;;;;;;5004138;28;20100;-79
2022/12/22 03:28:25;;;;;;;28.80;13.13;;;4.00;99.90;;;;;;4986803;28;20693;-79
2022/12/22 03:30:57;;;;;;;29.58;13.65;;;4.00;99.90;;;;;;5011888;28;20037;-79
2022/12/22 03:33:23;;;;;;;32.13;15.05;;;4.10;99.90;;;;;;4998708;28;20034;-79
2022/12/22 03:35:49;;;;;;;29.10;13.90;;;4.10;99.90;;;;;;4999632;28;20045;-80
2022/12/22 03:38:15;;;;;;;28.80;13.77;;;4.10;99.90;;;;;;4995994;28;20033;-80
2022/12/22 03:40:40;;;;;;;26.85;12.80;;;4.10;99.90;;;;;;4992321;28;20184;-81
2022/12/22 03:48:40;;;;;;;22.75;12.25;;;4.20;99.90;;;;;;5000473;28;20030;-80
2022/12/22 03:51:06;;;;;;;28.67;12.30;;;4.20;99.90;;;;;;4963774;28;20022;-81
2022/12/22 03:53:31;;;;;;;27.75;13.23;;;4.20;99.90;;;;;;4992185;28;20037;-81
2022/12/22 03:55:58;;;;;;;29.85;12.63;;;4.20;99.90;;;;;;4994073;28;20072;-81
2022/12/22 03:58:24;;;;;;;30.25;12.73;;;4.20;99.90;;;;;;4995056;28;20531;-81
2022/12/22 04:00:50;;;;;;;63.95;14.00;;;4.10;99.90;;;;;;4979099;28;20042;-78
2022/12/22 04:03:16;;;;;;;22.63;10.85;;;4.10;99.90;;;;;;4969099;28;20033;-80
2022/12/22 04:05:44;;;;;;;22.17;11.50;;;4.10;99.90;;;;;;4984684;28;20034;-80
2022/12/22 04:08:09;;;;;;;23.17;11.80;;;4.20;99.90;;;;;;5005475;28;20109;-80
2022/12/22 04:13:19;;;;;;;30.55;13.95;;;4.30;99.90;;;;;;5006680;28;20682;-82
2022/12/22 04:15:45;;;;;;;31.08;14.90;;;4.30;99.90;;;;;;4987357;28;20114;-81
2022/12/22 04:18:11;;;;;;;30.67;13.43;;;4.30;99.90;;;;;;4994111;28;20032;-80
2022/12/22 04:20:36;;;;;;;27.30;12.45;;;4.30;99.90;;;;;;4994437;28;20026;-80
2022/12/22 04:23:03;;;;;;;24.83;12.43;;;4.30;99.90;;;;;;4979899;28;20040;-81
2022/12/22 04:25:29;;;;;;;28.70;13.05;;;4.30;99.90;;;;;;4977489;28;20045;-81
2022/12/22 04:27:55;;;;;;;27.40;13.40;;;4.30;99.90;;;;;;4965479;28;20578;-81
2022/12/22 04:30:21;;;;;;;30.63;13.48;;;4.30;99.90;;;;;;4993572;28;20030;-80
2022/12/22 04:32:47;;;;;;;25.15;12.50;;;4.30;99.90;;;;;;4984585;28;20569;-81
2022/12/22 04:35:13;;;;;;;37.33;13.18;;;4.30;99.90;;;;;;4992193;28;20072;-82
2022/12/22 04:37:38;;;;;;;28.67;12.65;;;4.30;99.90;;;;;;4992292;28;20042;-80
2022/12/22 04:40:05;;;;;;;26.80;12.90;;;4.20;99.90;;;;;;4992716;28;20512;-81
2022/12/22 04:42:31;;;;;;;23.38;12.75;;;4.30;99.90;;;;;;4990819;28;20027;-80
2022/12/22 04:44:57;;;;;;;25.80;11.85;;;4.30;99.90;;;;;;5017083;28;20053;-79
2022/12/22 04:47:23;;;;;;;26.30;12.45;;;4.30;99.90;;;;;;4974474;28;20418;-80
2022/12/22 04:49:49;;;;;;;28.08;12.00;;;4.30;99.90;;;;;;4992227;28;20096;-82
2022/12/22 04:52:15;;;;;;;27.20;11.70;;;4.40;99.90;;;;;;4991645;28;20026;-82
2022/12/22 04:54:41;;;;;;;33.58;12.13;;;4.30;99.90;;;;;;4980676;28;20128;-80
2022/12/22 04:57:07;;;;;;;67.88;13.07;;;4.30;99.90;;;;;;5007439;28;20145;-78
2022/12/22 04:59:32;;;;;;;29.20;11.43;;;4.20;99.90;;;;;;5009874;28;20026;-80
2022/12/22 05:01:58;;;;;;;25.73;10.93;;;4.20;99.90;;;;;;4996327;28;20111;-80
2022/12/22 05:04:24;;;;;;;27.83;11.38;;;4.20;99.90;;;;;;5017702;28;20037;-80
2022/12/22 05:06:50;;;;;;;40.65;11.80;;;4.20;99.90;;;;;;4995450;28;20030;-80
2022/12/22 05:09:17;;;;;;;19.30;10.85;;;4.20;99.90;;;;;;4977479;28;20052;-81
2022/12/22 05:11:42;;;;;;;21.40;10.57;;;4.30;99.90;;;;;;5010210;28;20494;-80
2022/12/22 05:14:08;;;;;;;35.85;12.25;;;4.50;99.90;;;;;;4962467;28;20371;-81
2022/12/22 05:16:34;;;;;;;26.60;11.52;;;4.60;99.90;;;;;;4961211;28;20038;-80
2022/12/22 05:19:00;;;;;;;38.55;12.20;;;4.70;99.90;;;;;;4995184;28;20038;-79
2022/12/22 05:21:25;;;;;;;32.38;12.40;;;4.80;99.90;;;;;;4981086;28;20125;-80
2022/12/22 05:23:51;;;;;;;30.15;11.50;;;5.00;99.90;;;;;;4972294;28;20038;-80
2022/12/22 05:26:18;;;;;;;38.05;11.60;;;5.00;99.90;;;;;;4978595;28;20439;-81
2022/12/22 05:28:46;;;;;;;60.60;12.80;;;5.10;99.90;;;;;;4991493;28;20084;-79
2022/12/22 05:31:18;;;;;;;28.55;11.15;;;5.20;99.90;;;;;;5011346;28;20022;-79
2022/12/22 05:33:44;;;;;;;48.67;12.48;;;5.30;99.90;;;;;;5019283;28;20049;-78
2022/12/22 05:36:11;;;;;;;38.58;11.93;;;5.40;99.90;;;;;;4982176;28;20038;-79
2022/12/22 05:38:37;;;;;;;33.78;10.82;;;5.50;99.90;;;;;;4995214;28;20034;-78
2022/12/22 05:41:03;;;;;;;104.53;14.88;;;5.60;99.90;;;;;;5013716;28;20508;-80
2022/12/22 05:43:29;;;;;;;38.65;11.65;;;5.70;99.90;;;;;;4995324;28;20033;-80
2022/12/22 05:45:55;;;;;;;24.67;10.40;;;5.70;99.90;;;;;;5026122;28;20096;-80
2022/12/22 05:48:20;;;;;;;24.38;10.23;;;5.80;99.90;;;;;;4982658;28;20034;-79
2022/12/22 05:50:46;;;;;;;21.80;9.77;;;5.90;99.90;;;;;;5001524;28;20026;-80
2022/12/22 05:53:12;;;;;;;32.80;10.38;;;5.90;99.90;;;;;;5025264;28;21024;-79
2022/12/22 05:55:38;;;;;;;18.55;9.45;;;5.90;99.90;;;;;;5002512;28;20038;-79
2022/12/22 05:58:04;;;;;;;18.50;8.88;;;5.90;99.90;;;;;;4972995;28;20274;-79
2022/12/22 06:00:31;;;;;;;17.85;8.82;;;5.90;99.90;;;;;;4999395;28;20029;-79
2022/12/22 06:02:57;;;;;;;16.80;8.95;;;5.90;99.90;;;;;;4997920;28;20113;-80
2022/12/22 06:05:23;;;;;;;19.85;9.80;;;5.90;99.90;;;;;;4998662;28;20442;-79
2022/12/22 06:07:49;;;;;;;14.75;8.30;;;6.00;99.90;;;;;;5021245;28;20034;-79
2022/12/22 06:10:16;;;;;;;17.38;9.30;;;5.90;99.90;;;;;;5008468;28;20026;-78
2022/12/22 06:12:42;;;;;;;15.68;8.70;;;6.00;99.90;;;;;;5020715;28;20036;-81
2022/12/22 06:15:10;;;;;;;19.05;9.55;;;5.90;99.90;;;;;;4998315;28;20045;-80
2022/12/22 06:17:36;;;;;;;17.65;9.68;;;6.00;99.90;;;;;;4999527;28;20022;-79
2022/12/22 06:20:03;;;;;;;20.33;10.32;;;6.00;99.90;;;;;;5017641;28;20437;-79
2022/12/22 06:22:29;;;;;;;17.50;8.43;;;6.00;99.90;;;;;;5000656;28;20080;-79
2022/12/22 06:24:55;;;;;;;16.85;8.35;;;5.90;99.90;;;;;;4981534;28;20049;-78
2022/12/22 06:27:21;;;;;;;13.80;7.97;;;6.00;99.90;;;;;;5005757;28;20085;-79
2022/12/22 06:29:47;;;;;;;32.67;9.80;;;5.90;99.90;;;;;;5021994;28;20026;-78
2022/12/22 06:32:13;;;;;;;25.25;9.13;;;5.90;99.90;;;;;;5009265;28;20048;-79
2022/12/22 06:34:39;;;;;;;16.80;7.85;;;5.90;99.90;;;;;;5017674;28;20557;-79
2022/12/22 06:37:05;;;;;;;16.15;7.80;;;5.90;99.90;;;;;;5002647;28;20034;-78
2022/12/22 06:39:31;;;;;;;16.42;7.70;;;5.90;99.90;;;;;;5003786;28;20346;-80
2022/12/22 06:44:42;;;;;;;15.90;8.23;;;6.00;99.90;;;;;;4995534;28;20033;-79
2022/12/22 06:47:07;;;;;;;19.80;8.98;;;6.00;99.90;;;;;;4959944;28;20038;-79
2022/12/22 06:49:33;;;;;;;19.05;9.18;;;6.10;99.90;;;;;;4982898;28;20086;-80
2022/12/22 06:51:59;;;;;;;18.00;8.20;;;6.10;99.90;;;;;;4995292;28;20035;-78
2022/12/22 06:54:25;;;;;;;21.35;8.85;;;6.20;99.90;;;;;;4997057;28;20033;-81
2022/12/22 06:56:51;;;;;;;16.88;8.30;;;6.20;99.90;;;;;;4964310;28;21598;-78
2022/12/22 06:59:17;;;;;;;18.95;8.75;;;6.20;99.90;;;;;;4979179;28;20038;-80
2022/12/22 07:01:43;;;;;;;18.73;8.77;;;6.30;99.90;;;;;;5012778;28;20136;-81
2022/12/22 07:04:09;;;;;;;22.20;9.10;;;6.30;99.90;;;;;;4988938;28;20963;-79
2022/12/22 07:06:36;;;;;;;17.02;8.70;;;6.30;99.90;;;;;;4970562;28;20073;-81
2022/12/22 07:09:03;;;;;;;15.77;8.45;;;6.30;99.90;;;;;;5003696;28;21545;-79
2022/12/22 07:11:29;;;;;;;16.75;8.00;;;6.30;99.90;;;;;;4984213;28;20026;-79
2022/12/22 07:13:54;;;;;;;18.63;8.63;;;6.30;99.90;;;;;;4990466;28;20026;-80
2022/12/22 07:16:21;;;;;;;13.85;8.00;;;6.40;99.90;;;;;;4974487;28;20069;-78
2022/12/22 07:18:46;;;;;;;14.57;8.05;;;6.40;99.90;;;;;;4978651;28;20030;-79
2022/12/22 07:21:13;;;;;;;20.98;8.45;;;6.40;99.90;;;;;;4995098;28;20498;-80
2022/12/22 07:23:40;;;;;;;16.65;7.57;;;6.40;99.90;;;;;;4989675;28;20502;-81
2022/12/22 07:26:07;;;;;;;16.30;8.00;;;6.40;99.90;;;;;;4997858;28;20693;-78
2022/12/22 07:28:35;;;;;;;14.82;7.85;;;6.50;99.90;;;;;;5007305;28;20061;-82
2022/12/22 07:31:02;;;;;;;22.17;8.70;;;6.50;99.90;;;;;;4980052;28;20018;-81
2022/12/22 07:33:28;;;;;;;15.57;8.15;;;6.50;99.90;;;;;;5011216;28;20125;-82
2022/12/22 07:36:09;;;;;;;20.00;7.30;;;6.60;99.90;;;;;;5025937;28;20033;-81
2022/12/22 07:38:38;;;;;;;22.05;8.05;;;6.60;99.90;;;;;;5013272;28;20034;-80
2022/12/22 07:43:51;;;;;;;;;;;6.60;99.90;;;;;;4997963;28;20061;-82
2022/12/22 07:46:17;;;;;;;16.35;7.03;;;6.70;99.90;;;;;;4970391;28;20012;-80
2022/12/22 07:51:34;;;;;;;20.92;7.50;;;6.80;99.90;;;;;;4995967;28;20127;-81
2022/12/22 07:54:03;;;;;;;14.05;6.57;;;6.80;99.90;;;;;;5005234;28;20080;-80
2022/12/22 07:56:29;;;;;;;18.35;6.43;;;6.80;99.90;;;;;;4982938;28;20030;-80
2022/12/22 07:58:55;;;;;;;22.50;6.63;;;6.80;99.90;;;;;;4990490;28;20605;-81
2022/12/22 08:01:20;;;;;;;22.08;7.03;;;6.80;99.90;;;;;;4992107;28;20036;-80
2022/12/22 08:03:46;;;;;;;44.53;7.55;;;6.80;99.90;;;;;;4988054;28;20080;-80
2022/12/22 08:06:12;;;;;;;13.57;5.72;;;6.90;99.90;;;;;;5010038;28;20045;-79
2022/12/22 08:08:38;;;;;;;10.68;5.78;;;6.90;99.90;;;;;;5008446;28;20486;-79
2022/12/22 08:11:05;;;;;;;11.65;5.63;;;6.90;99.90;;;;;;4977087;28;20042;-81
2022/12/22 08:13:31;;;;;;;12.52;5.15;;;7.00;99.90;;;;;;4987551;28;20387;-81
2022/12/22 08:16:04;;;;;;;7.07;4.15;;;6.90;99.90;;;;;;5003786;28;20026;-79
2022/12/22 08:18:31;;;;;;;7.38;4.78;;;7.00;99.90;;;;;;5005973;28;20074;-79
2022/12/22 08:20:57;;;;;;;56.63;7.30;;;7.00;99.90;;;;;;4973162;28;20414;-79
2022/12/22 08:23:23;;;;;;;82.15;10.10;;;7.00;99.90;;;;;;4991830;28;20029;-80
2022/12/22 08:25:56;;;;;;;20.65;4.30;;;7.00;99.90;;;;;;4972104;28;20391;-79
2022/12/22 08:28:22;;;;;;;13.23;3.70;;;7.10;99.90;;;;;;5015355;28;20020;-79
2022/12/22 08:30:48;;;;;;;10.30;3.97;;;7.10;99.90;;;;;;4992542;28;20040;-79
2022/12/22 08:33:14;;;;;;;12.60;3.75;;;7.10;99.90;;;;;;4982636;28;20030;-78
2022/12/22 08:35:41;;;;;;;8.77;3.97;;;7.10;99.90;;;;;;4974859;28;20029;-79
2022/12/22 08:38:10;;;;;;;6.75;3.63;;;7.10;99.90;;;;;;5007018;28;20026;-79
2022/12/22 08:40:36;;;;;;;8.30;3.92;;;7.20;99.90;;;;;;4984996;28;20080;-80
2022/12/22 08:43:07;;;;;;;14.88;4.05;;;7.20;99.90;;;;;;5003735;28;20038;-78
2022/12/22 08:45:33;;;;;;;6.93;3.67;;;7.10;99.90;;;;;;5007791;28;20021;-79
2022/12/22 08:47:59;;;;;;;10.90;3.80;;;7.20;99.90;;;;;;4955592;28;20064;-80
2022/12/22 08:50:25;;;;;;;9.80;3.72;;;7.20;99.90;;;;;;4990239;28;20192;-81
2022/12/22 08:52:51;;;;;;;6.78;3.45;;;7.20;99.90;;;;;;4990723;28;20034;-79
2022/12/22 08:55:16;;;;;;;8.93;4.00;;;7.30;99.90;;;;;;4961071;28;20053;-79
2022/12/22 08:57:42;;;;;;;3.92;2.92;;;7.20;99.90;;;;;;5017249;28;20042;-79
2022/12/22 09:00:11;;;;;;;8.40;3.22;;;7.20;99.90;;;;;;4978578;28;20030;-80
2022/12/22 09:02:37;;;;;;;6.57;3.33;;;7.30;99.90;;;;;;4993030;28;20038;-78
2022/12/22 09:05:04;;;;;;;6.85;3.95;;;7.20;99.90;;;;;;4983902;28;20038;-79
2022/12/22 09:07:29;;;;;;;7.22;3.50;;;7.30;99.90;;;;;;4997916;28;20076;-79
2022/12/22 09:09:57;;;;;;;6.38;3.22;;;7.30;99.90;;;;;;5022370;28;20022;-79
2022/12/22 09:12:23;;;;;;;6.20;2.92;;;7.30;99.90;;;;;;5008060;28;20473;-79
2022/12/22 09:14:49;;;;;;;15.07;3.65;;;7.30;99.90;;;;;;5017391;28;20371;-78
2022/12/22 09:17:15;;;;;;;6.00;2.65;;;7.30;99.90;;;;;;5015267;28;20041;-79
2022/12/22 09:19:41;;;;;;;6.53;3.00;;;7.30;99.90;;;;;;5006577;28;20034;-81
2022/12/22 09:22:08;;;;;;;20.08;3.25;;;7.30;99.90;;;;;;5001199;28;20401;-80
2022/12/22 09:24:34;;;;;;;5.25;2.50;;;7.30;99.90;;;;;;4996791;28;20038;-80
2022/12/22 09:27:02;;;;;;;8.50;2.60;;;7.30;99.90;;;;;;5006598;28;20112;-80
2022/12/22 09:29:28;;;;;;;6.82;2.22;;;7.40;99.90;;;;;;5009856;28;20598;-81
2022/12/22 09:31:54;;;;;;;9.10;2.08;;;7.50;99.90;;;;;;5009922;28;20114;-80
2022/12/22 09:34:20;;;;;;;41.20;3.85;;;7.50;99.90;;;;;;4977874;28;20125;-80
2022/12/22 09:36:46;;;;;;;4.88;2.05;;;7.60;99.90;;;;;;5012781;28;20496;-79
2022/12/22 09:39:13;;;;;;;6.97;2.30;;;7.70;99.90;;;;;;5012866;28;20133;-80
2022/12/22 09:41:53;;;;;;;23.23;2.92;;;7.70;99.90;;;;;;4978691;28;20125;-81
2022/12/22 09:44:43;;;;;;;4.85;2.05;;;7.80;99.90;;;;;;4994944;28;20018;-80
2022/12/22 09:47:20;;;;;;;44.20;5.10;;;7.80;99.90;;;;;;5007181;28;20033;-82
2022/12/22 09:49:46;;;;;;;4.30;1.63;;;7.80;99.90;;;;;;5011039;28;20030;-81
2022/12/22 09:52:30;;;;;;;6.55;1.83;;;7.80;99.90;;;;;;4994363;28;20026;-81
2022/12/22 09:54:56;;;;;;;5.90;1.88;;;7.80;99.90;;;;;;4990352;28;20026;-82
2022/12/22 09:57:31;;;;;;;5.97;1.85;;;7.80;99.90;;;;;;4989308;28;20041;-79
2022/12/22 10:00:14;;;;;;;5.53;2.00;;;7.80;99.90;;;;;;4987948;28;20120;-80
2022/12/22 10:03:15;;;;;;;9.95;1.80;;;7.80;99.90;;;;;;4971591;28;20058;-80
2022/12/22 10:05:53;;;;;;;5.22;1.70;;;7.80;99.90;;;;;;4974139;28;20524;-80
2022/12/22 10:08:28;;;;;;;12.05;2.95;;;7.70;99.90;;;;;;4984889;28;20049;-79
2022/12/22 10:10:55;;;;;;;9.18;1.48;;;7.80;99.90;;;;;;5009096;28;20026;-80
2022/12/22 10:13:21;;;;;;;9.25;1.60;;;7.80;99.90;;;;;;4988916;28;20034;-79
2022/12/22 10:15:47;;;;;;;5.00;1.45;;;7.80;99.90;;;;;;4991483;28;20517;-78
2022/12/22 10:18:19;;;;;;;8.20;1.80;;;7.80;99.90;;;;;;4989902;28;20632;-77
2022/12/22 10:21:05;;;;;;;3.03;1.38;;;7.90;99.90;;;;;;4992536;28;20021;-79
2022/12/22 10:23:37;;;;;;;7.88;1.60;;;7.90;99.90;;;;;;4988798;28;20057;-78
2022/12/22 10:26:16;;;;;;;2.92;1.30;;;7.90;99.90;;;;;;4977248;28;20023;-77
2022/12/22 10:28:49;;;;;;;5.28;1.65;;;7.90;99.90;;;;;;4991683;28;20053;-79
2022/12/22 10:31:22;;;;;;;7.18;1.52;;;8.00;99.90;;;;;;5008019;28;20461;-78
2022/12/22 10:34:10;;;;;;;3.67;1.45;;;8.00;99.90;;;;;;5007052;28;20045;-81
2022/12/22 10:36:37;;;;;;;8.93;1.85;;;8.00;99.90;;;;;;5000921;28;20438;-80
2022/12/22 10:39:09;;;;;;;9.77;1.50;;;8.00;99.90;;;;;;4993510;28;20033;-79
2022/12/22 10:41:47;;;;;;;8.02;1.80;;;8.10;99.90;;;;;;5012402;28;20050;-78
2022/12/22 10:44:12;;;;;;;5.70;1.30;;;8.10;99.90;;;;;;5012966;28;20034;-79
2022/12/22 10:46:54;;;;;;;5.78;1.27;;;8.10;99.90;;;;;;5011917;28;20382;-80
2022/12/22 10:49:22;;;;;;;8.80;1.58;;;8.10;99.90;;;;;;5005116;28;20395;-79
2022/12/22 10:51:52;;;;;;;4.13;1.40;;;8.10;99.90;;;;;;5009784;28;20024;-80
2022/12/22 10:54:34;;;;;;;5.28;1.30;;;8.10;99.90;;;;;;4990396;28;20045;-79
2022/12/22 10:57:15;;;;;;;6.68;1.80;;;8.10;99.90;;;;;;4995876;28;20112;-79
2022/12/22 10:59:54;;;;;;;8.27;1.55;;;8.20;99.90;;;;;;4991183;28;20042;-79
2022/12/22 11:02:19;;;;;;;5.53;1.58;;;8.20;99.90;;;;;;5013112;28;20022;-79
2022/12/22 11:04:46;;;;;;;9.23;1.40;;;8.20;99.90;;;;;;4993506;28;20025;-80
2022/12/22 11:07:12;;;;;;;4.32;0.80;;;8.20;99.90;;;;;;5019416;28;20034;-78
2022/12/22 11:09:38;;;;;;;6.00;1.48;;;8.20;99.90;;;;;;4999414;28;20036;-79
2022/12/22 11:12:19;;;;;;;3.55;1.23;;;8.20;99.90;;;;;;4982779;28;20048;-78
2022/12/22 11:14:57;;;;;;;8.52;1.30;;;8.20;99.90;;;;;;5011780;28;20018;-78
2022/12/22 11:17:49;;;;;;;4.97;1.38;;;8.20;99.90;;;;;;5011277;28;20033;-79
2022/12/22 11:20:39;;;;;;;5.68;0.98;;;8.30;99.90;;;;;;5005789;28;20033;-78
2022/12/22 11:23:21;;;;;;;3.22;1.15;;;8.30;99.90;;;;;;4992185;28;20090;-79
2022/12/22 11:26:06;;;;;;;11.82;1.35;;;8.30;99.90;;;;;;5004676;28;20033;-79
2022/12/22 11:28:53;;;;;;;3.05;1.20;;;8.40;99.90;;;;;;5008902;28;20501;-78
2022/12/22 11:31:45;;;;;;;8.70;1.40;;;8.30;99.90;;;;;;5008355;28;20034;-79
2022/12/22 11:34:40;;;;;;;4.75;0.85;;;8.30;99.90;;;;;;5002721;28;20025;-79
2022/12/22 11:37:31;;;;;;;6.75;1.08;;;8.30;99.90;;;;;;4989489;28;20046;-77
2022/12/22 11:40:18;;;;;;;3.67;0.93;;;8.30;99.90;;;;;;4974782;28;20049;-78
2022/12/22 11:43:04;;;;;;;7.70;1.45;;;8.30;99.90;;;;;;5008284;28;20033;-79
2022/12/22 11:45:43;;;;;;;4.63;1.00;;;8.30;99.90;;;;;;4995300;28;20112;-77
2022/12/22 11:48:40;;;;;;;7.10;1.00;;;8.30;99.90;;;;;;4988810;28;20033;-79
2022/12/22 11:51:21;;;;;;;6.82;1.08;;;8.30;99.90;;;;;;4989994;28;20030;-79
2022/12/22 11:54:15;;;;;;;4.57;1.25;;;8.30;99.90;;;;;;4992033;28;20030;-79
2022/12/22 11:56:50;;;;;;;3.63;0.93;;;8.30;99.90;;;;;;4998290;28;20026;-78
2022/12/22 11:59:36;;;;;;;22.05;1.60;;;8.30;99.90;;;;;;4975604;28;20037;-79
2022/12/22 12:02:20;;;;;;;;;;;8.30;99.90;;;;;;5012782;28;20038;-79
2022/12/22 12:05:02;;;;;;;3.17;1.00;;;8.20;99.90;;;;;;5015131;28;20283;-78
2022/12/22 12:07:39;;;;;;;5.13;1.80;;;8.20;99.90;;;;;;4994558;28;20052;-80
2022/12/22 12:10:25;;;;;;;56.47;4.13;;;8.20;99.90;;;;;;4990359;28;20033;-78
2022/12/22 12:13:13;;;;;;;33.90;2.65;;;8.20;99.90;;;;;;4992370;28;20029;-78
2022/12/22 12:16:09;;;;;;;4.78;0.88;;;8.10;99.90;;;;;;5010458;28;20030;-79
2022/12/22 12:18:55;;;;;;;33.83;2.00;;;8.10;99.90;;;;;;5005835;28;20022;-78
2022/12/22 12:21:24;;;;;;;55.67;2.88;;;8.10;99.90;;;;;;5005659;28;20413;-78
2022/12/22 12:24:27;;;;;;;2.25;0.90;;;8.10;99.90;;;;;;4999917;28;20665;-78
2022/12/22 12:27:00;;;;;;;97.95;5.18;;;8.00;99.90;;;;;;5005967;28;20498;-78
2022/12/22 12:29:36;;;;;;;3.75;0.90;;;8.00;99.90;;;;;;4989332;28;20097;-78
2022/12/22 12:32:15;;;;;;;84.20;7.32;;;8.00;99.90;;;;;;5005515;28;20022;-79
2022/12/22 12:34:45;;;;;;;2.70;1.10;;;8.10;99.90;;;;;;4998632;28;20457;-78
2022/12/22 12:37:27;;;;;;;2.28;0.85;;;8.10;99.90;;;;;;5003161;28;20549;-77
2022/12/22 12:40:24;;;;;;;79.22;5.18;;;8.00;99.90;;;;;;5009394;28;20067;-79
2022/12/22 12:42:50;;;;;;;3.20;0.70;;;8.10;99.90;;;;;;5008508;28;20034;-82
2022/12/22 12:45:36;;;;;;;104.13;5.20;;;8.10;99.90;;;;;;5004082;28;20041;-80
2022/12/22 12:48:20;;;;;;;2.38;0.40;;;8.10;99.90;;;;;;4956189;28;20030;-79
2022/12/22 12:50:55;;;;;;;7.47;0.90;;;8.10;99.90;;;;;;5004571;28;20030;-80
2022/12/22 12:53:23;;;;;;;3.40;0.60;;;8.00;99.90;;;;;;4971712;28;20112;-79
2022/12/22 12:55:48;;;;;;;6.10;0.90;;;8.10;99.90;;;;;;4988925;28;20080;-80
2022/12/22 12:58:34;;;;;;;3.85;0.80;;;8.00;99.90;;;;;;4988070;28;20662;-79
2022/12/22 13:01:29;;;;;;;69.22;4.15;;;8.00;99.90;;;;;;4986564;28;20039;-79
2022/12/22 13:03:54;;;;;;;54.67;2.88;;;8.00;99.90;;;;;;5009640;28;20034;-78
2022/12/22 13:06:45;;;;;;;1.40;0.52;;;8.00;99.90;;;;;;4992119;28;20026;-79
2022/12/22 13:09:21;;;;;;;14.02;1.02;;;8.00;99.90;;;;;;4986094;28;20722;-80
2022/12/22 13:11:50;;;;;;;2.28;0.68;;;8.00;99.90;;;;;;5001811;28;20037;-78
2022/12/22 13:14:56;;;;;;;9.02;0.88;;;8.00;99.90;;;;;;4986604;28;20536;-82
2022/12/22 13:17:47;;;;;;;1.33;0.63;;;8.00;99.90;;;;;;4987764;28;20033;-79
2022/12/22 13:20:17;;;;;;;49.20;2.70;;;8.00;99.90;;;;;;4985594;28;20121;-80
2022/12/22 13:22:44;;;;;;;1.73;0.60;;;8.00;99.90;;;;;;5005082;28;20426;-78
2022/12/22 13:25:17;;;;;;;2.05;0.63;;;8.00;99.90;;;;;;4970769;28;20045;-80
2022/12/22 13:27:44;;;;;;;1.00;0.52;;;8.10;99.90;;;;;;5003312;28;20096;-77
2022/12/22 13:30:19;;;;;;;4.15;0.70;;;8.10;99.90;;;;;;4984591;28;20029;-80
2022/12/22 13:32:48;;;;;;;47.90;3.08;;;8.10;99.90;;;;;;4969056;28;20780;-79
2022/12/22 13:35:21;;;;;;;7.97;0.85;;;8.10;99.90;;;;;;5002824;28;20029;-80
2022/12/22 13:37:49;;;;;;;64.10;3.75;;;8.00;99.90;;;;;;4987874;28;20080;-78
2022/12/22 13:40:19;;;;;;;111.43;7.93;;;8.10;99.90;;;;;;4999715;28;20029;-77
2022/12/22 13:42:50;;;;;;;1.48;0.40;;;8.10;99.90;;;;;;5003490;28;20033;-79
2022/12/22 13:45:28;;;;;;;28.05;1.00;;;8.10;99.90;;;;;;4986410;28;20030;-78
2022/12/22 13:47:55;;;;;;;101.65;4.63;;;8.00;99.90;;;;;;5001405;28;20050;-78
2022/12/22 13:50:37;;;;;;;110.45;5.28;;;8.00;99.90;;;;;;4990600;28;20030;-79
2022/12/22 13:53:06;;;;;;;7.07;0.65;;;8.00;99.90;;;;;;4978467;28;20026;-78
2022/12/22 13:55:33;;;;;;;0.38;0.30;;;7.90;99.90;;;;;;4995099;28;20468;-79
2022/12/22 13:58:18;;;;;;;134.27;7.88;;;7.90;99.90;;;;;;4996346;28;20556;-78
2022/12/22 14:00:44;;;;;;;137.98;7.75;;;8.00;99.90;;;;;;4989649;28;20436;-77
2022/12/22 14:03:18;;;;;;;2.38;0.52;;;7.90;99.90;;;;;;5008209;28;20042;-78
2022/12/22 14:05:44;;;;;;;1.33;0.20;;;7.90;99.90;;;;;;5006215;28;20032;-78
2022/12/22 14:08:11;;;;;;;3.22;0.40;;;7.90;99.90;;;;;;4993881;28;20105;-79
2022/12/22 14:10:55;;;;;;;1.27;0.25;;;7.90;99.90;;;;;;4996965;28;20882;-77
2022/12/22 14:13:31;;;;;;;0.50;0.40;;;7.90;99.90;;;;;;4989948;28;20030;-77
2022/12/22 14:16:03;;;;;;;10.13;0.68;;;7.90;99.90;;;;;;4996635;28;20029;-78
2022/12/22 14:18:31;;;;;;;0.30;0.30;;;8.00;99.90;;;;;;4979945;28;20076;-78
2022/12/22 14:20:58;;;;;;;73.90;5.70;;;8.00;99.90;;;;;;5012485;28;20026;-79
2022/12/22 14:23:26;;;;;;;86.43;3.70;;;8.00;99.90;;;;;;5000323;28;20470;-79
2022/12/22 14:25:54;;;;;;;12.75;0.98;;;8.00;99.90;;;;;;5015478;28;20061;-77
2022/12/22 14:28:27;;;;;;;1.38;0.40;;;7.90;99.90;;;;;;4986668;28;20058;-82
2022/12/22 14:30:58;;;;;;;29.20;1.63;;;7.90;99.90;;;;;;4978899;28;20030;-77
2022/12/22 14:33:27;;;;;;;5.88;0.52;;;7.80;99.90;;;;;;5012577;28;20033;-81
2022/12/22 14:36:17;;;;;;;6.97;0.80;;;7.90;99.90;;;;;;5014848;28;20033;-80
2022/12/22 14:38:46;;;;;;;0.45;0.45;;;7.80;99.90;;;;;;5028344;28;20312;-78
2022/12/22 14:44:10;;;;;;;2.05;0.95;;;7.80;99.90;;;;;;5007651;28;20101;-78
2022/12/22 14:46:36;;;;;;;30.30;1.42;;;7.90;99.90;;;;;;5005380;28;20034;-79
2022/12/22 14:49:02;;;;;;;20.83;1.10;;;7.90;99.90;;;;;;5007825;28;20117;-80
2022/12/22 14:51:28;;;;;;;13.25;2.63;;;7.90;99.90;;;;;;5003603;28;20033;-80
2022/12/22 14:53:57;;;;;;;29.30;1.55;;;7.80;99.90;;;;;;4974734;28;20512;-80
2022/12/22 14:56:24;;;;;;;43.65;2.90;;;7.80;99.90;;;;;;5012277;28;20119;-81
2022/12/22 14:58:50;;;;;;;13.77;0.38;;;7.80;99.90;;;;;;5006446;28;20033;-80
2022/12/22 15:01:26;;;;;;;8.07;0.77;;;7.70;99.90;;;;;;5002110;28;20030;-80
2022/12/22 15:03:57;;;;;;;9.50;0.88;;;7.70;99.90;;;;;;4985043;28;20052;-80
2022/12/22 15:06:26;;;;;;;1.42;0.20;;;7.60;99.90;;;;;;4990790;28;20022;-82
2022/12/22 15:09:13;;;;;;;11.68;0.70;;;7.60;99.90;;;;;;4978334;28;20029;-79
2022/12/22 15:12:07;;;;;;;79.20;3.47;;;7.60;99.90;;;;;;5001049;28;20034;-80
2022/12/22 15:14:35;;;;;;;35.50;1.90;;;7.50;99.90;;;;;;5009820;28;20034;-82
2022/12/22 15:17:02;;;;;;;5.57;0.65;;;7.40;99.90;;;;;;4996034;28;20045;-80
2022/12/22 15:19:32;;;;;;;19.45;1.27;;;7.40;99.90;;;;;;4981472;28;20061;-80
2022/12/22 15:21:58;;;;;;;25.50;1.05;;;7.40;99.90;;;;;;5013524;28;20030;-79
2022/12/22 15:24:24;;;;;;;29.30;1.48;;;7.40;99.90;;;;;;4993138;28;20026;-80
2022/12/22 15:26:49;;;;;;;21.27;2.70;;;7.40;99.90;;;;;;5006471;28;20034;-79
2022/12/22 15:29:15;;;;;;;8.25;0.73;;;7.30;99.90;;;;;;4994468;28;20033;-80
2022/12/22 15:31:42;;;;;;;9.75;0.68;;;7.30;99.90;;;;;;4972949;28;20037;-79
2022/12/22 15:34:17;;;;;;;15.30;1.00;;;7.30;99.90;;;;;;4973454;28;20022;-78
2022/12/22 15:36:43;;;;;;;33.92;2.03;;;7.30;99.90;;;;;;4989855;28;20041;-78
2022/12/22 15:39:17;;;;;;;34.33;1.45;;;7.20;99.90;;;;;;4984981;28;20049;-79
2022/12/22 15:41:44;;;;;;;40.08;1.73;;;7.20;99.90;;;;;;4988971;28;20030;-81
2022/12/22 15:44:10;;;;;;;1.10;0.40;;;7.30;99.90;;;;;;4959361;28;20034;-79
2022/12/22 15:46:38;;;;;;;38.53;2.15;;;7.20;99.90;;;;;;5008935;28;20017;-80
2022/12/22 15:49:12;;;;;;;38.38;4.30;;;7.30;99.90;;;;;;4982116;28;20113;-77
2022/12/22 15:51:37;;;;;;;47.03;3.65;;;7.20;99.90;;;;;;4981016;28;20089;-76
2022/12/22 15:54:03;;;;;;;99.05;5.43;;;7.20;99.90;;;;;;4989337;28;20366;-79
2022/12/22 15:56:32;;;;;;;5.55;0.70;;;7.20;99.90;;;;;;4979623;28;20025;-79
2022/12/22 15:58:59;;;;;;;1.70;0.20;;;7.20;99.90;;;;;;5009634;28;20068;-79
2022/12/22 16:01:25;;;;;;;46.20;1.75;;;7.20;99.90;;;;;;4991144;28;20053;-79
2022/12/22 16:03:50;;;;;;;49.05;1.55;;;7.20;99.90;;;;;;4992656;28;20104;-79
2022/12/22 16:06:18;;;;;;;4.38;1.27;;;7.10;99.90;;;;;;4992627;28;20021;-79
2022/12/22 16:08:50;;;;;;;11.20;0.90;;;7.10;99.90;;;;;;5013146;28;20034;-79
2022/12/22 16:11:17;;;;;;;5.22;0.55;;;7.10;99.90;;;;;;4977853;28;20030;-79
2022/12/22 16:13:44;;;;;;;4.65;0.60;;;7.10;99.90;;;;;;4992176;28;20037;-78
2022/12/22 16:16:10;;;;;;;51.70;2.58;;;7.10;99.90;;;;;;5008850;28;20030;-80
2022/12/22 16:18:36;;;;;;;44.17;2.15;;;7.10;99.90;;;;;;4973436;28;20030;-79
2022/12/22 16:21:06;;;;;;;9.00;1.15;;;7.00;99.90;;;;;;5007449;28;20034;-79
2022/12/22 16:23:33;;;;;;;36.30;3.40;;;7.00;99.90;;;;;;5013661;28;20042;-78
2022/12/22 16:26:00;;;;;;;37.95;1.20;;;7.00;99.90;;;;;;5012884;28;20022;-79
2022/12/22 16:28:26;;;;;;;26.83;1.02;;;7.00;99.90;;;;;;4977588;28;20402;-78
2022/12/22 16:30:52;;;;;;;39.55;1.55;;;7.10;99.90;;;;;;4990453;28;20032;-79
2022/12/22 16:33:19;;;;;;;17.58;1.45;;;7.00;99.90;;;;;;4991796;28;20033;-80
2022/12/22 16:35:44;;;;;;;9.10;0.50;;;7.00;99.90;;;;;;4976147;28;20069;-78
2022/12/22 16:38:10;;;;;;;29.83;2.22;;;7.00;99.90;;;;;;4976667;28;20054;-78
2022/12/22 16:40:45;;;;;;;3.05;0.70;;;7.00;99.90;;;;;;4991760;28;20129;-78
2022/12/22 16:43:34;;;;;;;4.43;0.40;;;7.00;99.90;;;;;;4987683;28;20037;-80
2022/12/22 16:46:01;;;;;;;28.75;1.27;;;7.00;99.90;;;;;;5001278;28;20786;-78
2022/12/22 16:48:38;;;;;;;7.00;1.35;;;7.00;99.90;;;;;;5007214;28;20483;-80
2022/12/22 16:51:05;;;;;;;42.03;1.65;;;6.90;99.90;;;;;;5001092;28;20021;-78
2022/12/22 16:53:31;;;;;;;24.10;0.98;;;6.90;99.90;;;;;;4973924;28;20390;-81